Time;durP1;ratioP1;P1;durP2;ratioP2;P2;SDS_P1;SDS_P2;PMS_P1;PMS_P2;Temp;Humidity;BMP_temperature;BMP_pressure;BME280_temperature;BME280_humidity;BME280_pressure;Samples;Min_cycle;Max_cycle;Signal;HPM_P1;HPM_P2
2022/04/30 00:00:08;;;;;;;950.40;885.97;;;;;;;14.75;41.85;101935.44;689589;28;22377;-64
2022/04/30 00:00:34;;;;;;;945.10;880.92;;;;;;;14.76;41.85;101935.25;684967;28;139214;-64
2022/04/30 00:00:58;;;;;;;951.92;887.53;;;;;;;14.78;41.72;101940.53;688372;28;46165;-65
2022/04/30 00:01:19;;;;;;;958.97;894.25;;;;;;;14.77;41.51;101934.22;685705;28;93121;-64
2022/04/30 00:01:42;;;;;;;956.90;892.25;;;;;;;14.77;41.86;101933.38;685814;28;45494;-64
2022/04/30 00:02:06;;;;;;;951.53;887.13;;;;;;;14.78;41.91;101935.06;686972;28;46332;-64
2022/04/30 00:02:27;;;;;;;922.42;858.92;;;;;;;14.80;41.65;101937.63;685329;28;92251;-64
2022/04/30 00:02:48;;;;;;;928.50;864.80;;;;;;;14.78;41.46;101938.63;687773;28;23533;-64
2022/04/30 00:03:10;;;;;;;933.92;869.95;;;;;;;14.76;41.84;101937.09;687018;28;20881;-65
2022/04/30 00:03:31;;;;;;;933.22;869.25;;;;;;;14.75;41.54;101938.16;687395;28;46305;-64
2022/04/30 00:03:53;;;;;;;929.33;865.58;;;;;;;14.73;41.65;101935.59;688358;28;21562;-64
2022/04/30 00:04:14;;;;;;;929.53;865.75;;;;;;;14.73;41.89;101940.16;687162;28;44273;-64
2022/04/30 00:04:35;;;;;;;938.15;874.20;;;;;;;14.71;41.87;101934.06;688642;28;24400;-64
2022/04/30 00:04:58;;;;;;;937.70;873.78;;;;;;;14.72;41.74;101939.34;688033;28;44136;-64
2022/04/30 00:05:19;;;;;;;943.03;879.00;;;;;;;14.70;42.04;101940.53;688002;28;45121;-64
2022/04/30 00:05:40;;;;;;;939.00;875.08;;;;;;;14.70;42.04;101935.09;689097;28;22039;-64
2022/04/30 00:06:03;;;;;;;938.15;874.28;;;;;;;14.70;42.20;101940.53;687531;28;46317;-64
2022/04/30 00:06:24;;;;;;;938.55;874.63;;;;;;;14.69;42.26;101939.69;687057;28;44658;-64
2022/04/30 00:06:45;;;;;;;935.72;871.85;;;;;;;14.68;41.98;101935.25;688146;28;23554;-64
2022/04/30 00:07:07;;;;;;;947.67;883.28;;;;;;;14.66;42.57;101937.31;688191;28;22953;-64
2022/04/30 00:07:29;;;;;;;957.55;893.00;;;;;;;14.65;42.61;101935.59;687993;28;46340;-64
2022/04/30 00:07:50;;;;;;;955.30;890.75;;;;;;;14.65;42.60;101935.59;687567;28;46506;-64
2022/04/30 00:08:11;;;;;;;953.65;889.28;;;;;;;14.65;42.87;101932.88;688474;28;23418;-64
2022/04/30 00:08:33;;;;;;;965.05;900.35;;;;;;;14.66;42.95;101942.75;687887;28;22389;-64
2022/04/30 00:08:54;;;;;;;956.20;891.80;;;;;;;14.67;42.79;101935.44;687728;28;69521;-64
2022/04/30 00:09:15;;;;;;;959.08;894.50;;;;;;;14.66;42.98;101937.31;688627;28;44391;-64
2022/04/30 00:09:36;;;;;;;965.40;900.50;;;;;;;14.66;42.63;101937.31;688115;28;23483;-64
2022/04/30 00:09:58;;;;;;;957.47;892.78;;;;;;;14.65;43.07;101945.66;689443;28;23428;-64
2022/04/30 00:10:19;;;;;;;951.75;887.35;;;;;;;14.66;42.92;101934.59;688964;28;22616;-64
2022/04/30 00:10:42;;;;;;;956.53;891.92;;;;;;;14.67;42.97;101936.31;687642;28;45252;-64
2022/04/30 00:11:03;;;;;;;947.55;883.33;;;;;;;14.65;42.67;101935.59;688243;28;46274;-64
2022/04/30 00:11:24;;;;;;;956.53;891.80;;;;;;;14.66;42.58;101934.59;687927;28;23456;-64
2022/04/30 00:11:46;;;;;;;958.42;893.60;;;;;;;14.67;42.57;101936.31;688771;28;22196;-63
2022/04/30 00:12:09;;;;;;;954.05;889.50;;;;;;;14.68;42.69;101946.13;688852;28;46189;-63
2022/04/30 00:12:31;;;;;;;949.88;885.50;;;;;;;14.66;42.67;101940.03;683466;28;67473;-64
2022/04/30 00:12:54;;;;;;;960.60;895.90;;;;;;;14.66;42.37;101937.31;682010;28;92236;-63
2022/04/30 00:13:16;;;;;;;956.55;891.90;;;;;;;14.66;42.83;101929.16;684698;28;22809;-64
2022/04/30 00:13:38;;;;;;;953.05;888.63;;;;;;;14.65;42.48;101941.03;684085;28;46340;-64
2022/04/30 00:13:59;;;;;;;944.47;880.38;;;;;;;14.64;42.58;101928.50;684645;28;44386;-64
2022/04/30 00:14:20;;;;;;;945.55;881.40;;;;;;;14.64;42.52;101936.66;686097;28;21541;-64
2022/04/30 00:14:43;;;;;;;963.47;898.60;;;;;;;14.63;42.68;101934.94;684143;28;22541;-64
2022/04/30 00:15:06;;;;;;;976.75;911.25;;;;;;;14.62;42.79;101935.13;682309;28;92263;-64
2022/04/30 00:15:27;;;;;;;953.15;888.78;;;;;;;14.61;42.60;101934.28;684290;28;32125;-64
2022/04/30 00:15:48;;;;;;;961.70;897.10;;;;;;;14.59;42.90;101937.13;684771;28;23486;-64
2022/04/30 00:16:10;;;;;;;950.47;886.20;;;;;;;14.58;42.66;101930.00;685352;28;23427;-63
2022/04/30 00:16:31;;;;;;;951.15;886.55;;;;;;;14.58;42.34;101938.16;683833;28;47413;-64
2022/04/30 00:16:53;;;;;;;952.67;888.03;;;;;;;14.58;42.62;101931.88;688776;28;22405;-64
2022/04/30 00:17:14;;;;;;;959.33;894.60;;;;;;;14.57;42.57;101927.44;685807;28;979;-64
2022/04/30 00:17:36;;;;;;;959.53;894.83;;;;;;;14.53;42.58;101926.97;684203;28;46257;-63
2022/04/30 00:17:58;;;;;;;953.15;888.72;;;;;;;14.56;42.64;101933.91;683951;28;44189;-63
2022/04/30 00:18:19;;;;;;;948.78;884.45;;;;;;;14.54;42.24;101930.53;685925;28;1422;-63
2022/04/30 00:18:41;;;;;;;948.20;883.92;;;;;;;14.55;42.33;101932.22;684429;28;22387;-63
2022/04/30 00:19:02;;;;;;;962.15;897.35;;;;;;;14.53;42.68;101932.41;685825;28;24170;-63
2022/04/30 00:19:24;;;;;;;958.50;893.88;;;;;;;14.54;42.59;101930.53;689658;28;1506;-63
2022/04/30 00:19:46;;;;;;;950.45;885.85;;;;;;;14.52;42.79;101932.56;686102;28;69261;-63
2022/04/30 00:20:07;;;;;;;963.17;898.28;;;;;;;14.52;42.57;101936.13;689541;28;22462;-63
2022/04/30 00:20:29;;;;;;;944.40;880.20;;;;;;;14.51;43.08;101928.97;688128;28;46333;-63
2022/04/30 00:20:51;;;;;;;951.10;886.72;;;;;;;14.51;42.80;101925.44;688851;28;23508;-63
2022/04/30 00:21:12;;;;;;;954.55;890.05;;;;;;;14.49;42.98;101924.75;688740;28;46319;-63
2022/04/30 00:21:43;;;;;;;950.10;885.75;;;;;;;14.48;43.03;101923.06;684547;28;118403;-63
2022/04/30 00:22:04;;;;;;;955.97;891.22;;;;;;;14.47;43.33;101932.25;688276;28;22387;-63
2022/04/30 00:22:25;;;;;;;982.20;916.38;;;;;;;14.47;43.08;101926.81;688022;28;44219;-63
2022/04/30 00:22:47;;;;;;;959.03;894.35;;;;;;;14.46;43.48;101931.38;688527;28;22387;-63
2022/04/30 00:23:19;;;;;;;951.00;886.63;;;;;;;14.45;43.59;101934.28;686724;28;66951;-63
2022/04/30 00:23:40;;;;;;;960.97;896.30;;;;;;;14.42;43.45;101928.19;684583;28;138524;-63
2022/04/30 00:24:02;;;;;;;965.90;901.08;;;;;;;14.40;43.48;101921.22;688610;28;44415;-63
2022/04/30 00:24:26;;;;;;;949.75;885.40;;;;;;;14.38;43.48;101921.38;686016;28;69425;-63
2022/04/30 00:24:48;;;;;;;948.55;884.22;;;;;;;14.38;43.42;101925.97;687780;28;46368;-63
2022/04/30 00:25:10;;;;;;;951.17;886.78;;;;;;;14.35;43.07;101919.00;687142;28;67302;-63
2022/04/30 00:25:31;;;;;;;946.78;882.47;;;;;;;14.37;43.17;101921.56;688907;28;21326;-63
2022/04/30 00:25:54;;;;;;;945.83;881.55;;;;;;;14.36;43.04;101920.72;687683;28;44548;-63
2022/04/30 00:26:15;;;;;;;942.45;878.28;;;;;;;14.37;43.37;101921.56;687234;28;67495;-63
2022/04/30 00:26:37;;;;;;;955.35;890.55;;;;;;;14.36;42.97;101931.59;684994;28;45191;-63
2022/04/30 00:27:00;;;;;;;946.10;881.83;;;;;;;14.35;43.37;101921.72;689566;28;21536;-63
2022/04/30 00:27:23;;;;;;;951.10;886.63;;;;;;;14.35;43.35;101919.00;683517;28;69432;-63
2022/04/30 00:27:44;;;;;;;947.97;883.40;;;;;;;14.36;43.46;101925.31;684765;28;50055;-64
2022/04/30 00:28:05;;;;;;;947.40;883.10;;;;;;;14.34;43.35;101922.75;681289;28;22112;-63
2022/04/30 00:28:26;;;;;;;943.25;879.13;;;;;;;14.34;43.61;101919.19;683439;28;2415;-63
2022/04/30 00:28:48;;;;;;;946.03;881.72;;;;;;;14.35;43.55;101923.59;682461;28;22366;-63
2022/04/30 00:29:10;;;;;;;943.20;879.13;;;;;;;14.35;43.60;101918.16;682903;28;21833;-63
2022/04/30 00:29:31;;;;;;;944.67;880.38;;;;;;;14.34;43.68;101928.19;684820;28;47709;-63
2022/04/30 00:29:54;;;;;;;937.30;873.17;;;;;;;14.33;43.64;101931.94;685932;28;22294;-64
2022/04/30 00:30:15;;;;;;;940.42;876.50;;;;;;;14.33;43.62;101926.50;684191;28;66826;-64
2022/04/30 00:30:39;;;;;;;938.25;874.35;;;;;;;14.34;43.20;101930.91;684461;28;70350;-63
2022/04/30 00:31:00;;;;;;;931.15;867.47;;;;;;;14.34;43.39;101930.06;686408;28;46323;-63
2022/04/30 00:31:22;;;;;;;940.63;876.58;;;;;;;14.32;43.70;101926.66;684698;28;9433;-63
2022/04/30 00:31:43;;;;;;;951.53;887.13;;;;;;;14.31;43.32;101928.53;686018;28;21529;-63
2022/04/30 00:32:05;;;;;;;946.20;881.92;;;;;;;14.31;43.80;101922.25;682616;28;23531;-63
2022/04/30 00:32:27;;;;;;;944.17;879.90;;;;;;;14.29;43.79;101930.56;681770;28;45225;-63
2022/04/30 00:32:48;;;;;;;984.83;918.85;;;;;;;14.29;43.67;101933.28;682152;28;45240;-63
2022/04/30 00:33:10;;;;;;;989.50;923.30;;;;;;;14.28;43.32;101919.88;682514;28;22427;-63
2022/04/30 00:33:32;;;;;;;974.83;909.20;;;;;;;14.27;43.55;101926.34;685017;28;44408;-63
2022/04/30 00:33:53;;;;;;;963.22;898.22;;;;;;;14.28;43.08;101933.47;685683;28;46297;-63
2022/04/30 00:34:14;;;;;;;953.45;888.90;;;;;;;14.28;43.17;101930.75;687798;28;21643;-63
2022/04/30 00:34:35;;;;;;;942.53;878.42;;;;;;;14.27;42.87;101929.06;687146;28;21403;-63
2022/04/30 00:34:57;;;;;;;945.28;881.10;;;;;;;14.26;42.73;101933.63;686061;28;44299;-63
2022/04/30 00:35:18;;;;;;;953.78;889.25;;;;;;;14.24;42.76;101927.53;687795;28;23519;-63
2022/04/30 00:35:40;;;;;;;951.65;887.25;;;;;;;14.23;43.08;101925.81;687367;28;15250;-63
2022/04/30 00:36:02;;;;;;;940.80;876.83;;;;;;;14.23;42.92;101926.69;687043;28;44413;-64
2022/04/30 00:36:23;;;;;;;948.20;883.85;;;;;;;14.23;43.41;101931.25;687137;28;44380;-63
2022/04/30 00:36:44;;;;;;;951.67;887.28;;;;;;;14.22;43.03;101927.69;688208;28;22371;-63
2022/04/30 00:37:06;;;;;;;953.42;889.05;;;;;;;14.21;43.06;101923.28;689596;28;21527;-63
2022/04/30 00:37:27;;;;;;;957.60;893.00;;;;;;;14.21;43.25;101925.16;687116;28;47238;-63
2022/04/30 00:37:48;;;;;;;942.13;878.13;;;;;;;14.22;43.32;101929.56;688182;28;22296;-63
2022/04/30 00:38:09;;;;;;;949.25;885.03;;;;;;;14.21;42.86;101927.88;688606;28;21515;-63
2022/04/30 00:38:32;;;;;;;944.47;880.33;;;;;;;14.20;43.14;101921.59;687274;28;45370;-63
2022/04/30 00:38:53;;;;;;;942.28;878.22;;;;;;;14.21;42.93;101927.88;687901;28;44430;-63
2022/04/30 00:39:14;;;;;;;947.95;883.63;;;;;;;14.21;42.82;101923.28;689400;28;23503;-63
2022/04/30 00:39:35;;;;;;;949.97;885.45;;;;;;;14.21;42.89;101927.88;687828;28;23576;-63
2022/04/30 00:39:58;;;;;;;951.00;886.33;;;;;;;14.21;42.54;101926.00;687282;28;47440;-63
2022/04/30 00:40:19;;;;;;;953.80;889.25;;;;;;;14.21;42.80;101930.59;687209;28;46293;-63
2022/04/30 00:40:42;;;;;;;955.03;890.30;;;;;;;14.21;42.71;101917.84;687271;28;22382;-63
2022/04/30 00:41:03;;;;;;;950.67;886.17;;;;;;;14.22;42.56;101924.16;686848;28;70134;-63
2022/04/30 00:41:25;;;;;;;950.65;886.08;;;;;;;14.21;42.26;101917.84;686465;28;23470;-63
2022/04/30 00:41:47;;;;;;;945.30;880.95;;;;;;;14.20;42.14;101921.59;686580;28;44322;-63
2022/04/30 00:42:11;;;;;;;939.00;875.00;;;;;;;14.20;42.09;101926.16;688768;28;46395;-63
2022/04/30 00:42:32;;;;;;;957.77;893.10;;;;;;;14.20;42.31;101923.44;685468;28;115382;-63
2022/04/30 00:42:54;;;;;;;955.05;890.55;;;;;;;14.20;42.33;101923.44;687660;28;46381;-62
2022/04/30 00:43:16;;;;;;;948.83;884.22;;;;;;;14.21;42.29;101927.88;686656;28;45263;-63
2022/04/30 00:43:43;;;;;;;953.33;888.65;;;;;;;14.20;42.59;101923.44;687732;28;22421;-63
2022/04/30 00:44:04;;;;;;;957.80;893.05;;;;;;;14.19;42.55;101919.88;683089;28;148580;-63
2022/04/30 00:44:27;;;;;;;945.22;880.83;;;;;;;14.21;42.55;101922.44;687071;28;44343;-63
2022/04/30 00:44:49;;;;;;;945.83;881.47;;;;;;;14.21;42.28;101925.16;685377;28;70222;-63
2022/04/30 00:45:10;;;;;;;945.67;881.47;;;;;;;14.21;42.41;101922.44;687715;28;21294;-63
2022/04/30 00:45:32;;;;;;;933.97;870.20;;;;;;;14.18;42.33;101917.34;687104;28;46148;-63
2022/04/30 00:45:54;;;;;;;940.97;877.05;;;;;;;14.19;42.62;101922.59;687058;28;46465;-63
2022/04/30 00:46:16;;;;;;;938.08;874.20;;;;;;;14.20;42.38;101920.72;689057;28;23501;-63
2022/04/30 00:46:37;;;;;;;939.70;875.65;;;;;;;14.19;42.74;101927.19;686603;28;46317;-63
2022/04/30 00:46:59;;;;;;;945.30;881.08;;;;;;;14.18;42.62;101923.63;689404;28;23424;-63
2022/04/30 00:47:20;;;;;;;946.42;882.17;;;;;;;14.19;42.33;101921.78;688587;28;46260;-63
2022/04/30 00:47:41;;;;;;;941.25;877.20;;;;;;;14.17;42.83;101921.06;689460;28;21314;-63
2022/04/30 00:48:03;;;;;;;946.13;881.88;;;;;;;14.17;42.61;101921.06;688742;28;46601;-63
2022/04/30 00:48:25;;;;;;;938.05;873.97;;;;;;;14.16;42.82;101931.09;687639;28;46535;-63
2022/04/30 00:48:46;;;;;;;944.35;880.15;;;;;;;14.17;42.51;101929.22;687623;28;45264;-63
2022/04/30 00:49:08;;;;;;;970.83;905.40;;;;;;;14.17;42.91;101927.38;689303;28;22364;-63
2022/04/30 00:49:30;;;;;;;970.13;904.72;;;;;;;14.16;42.77;101924.81;686692;28;44058;-63
2022/04/30 00:49:51;;;;;;;940.63;876.42;;;;;;;14.15;42.61;101926.72;687645;28;44388;-63
2022/04/30 00:50:15;;;;;;;931.25;867.50;;;;;;;14.15;42.54;101918.56;689016;28;21569;-63
2022/04/30 00:50:36;;;;;;;927.40;863.78;;;;;;;14.15;42.73;101921.28;684892;28;94344;-63
2022/04/30 00:50:58;;;;;;;933.45;869.75;;;;;;;14.14;42.96;101916.00;687502;28;22424;-63
2022/04/30 00:51:21;;;;;;;949.58;885.30;;;;;;;14.14;42.43;101927.72;686336;28;45010;-63
2022/04/30 00:51:43;;;;;;;931.28;867.58;;;;;;;14.13;42.62;101917.03;685099;28;69203;-63
2022/04/30 00:52:05;;;;;;;943.95;879.78;;;;;;;14.12;42.99;101923.47;686842;28;45295;-63
2022/04/30 00:52:27;;;;;;;942.75;878.53;;;;;;;14.14;42.81;101921.44;686225;28;45227;-63
2022/04/30 00:52:50;;;;;;;934.13;870.25;;;;;;;14.12;42.99;101918.03;688143;28;46292;-63
2022/04/30 00:53:13;;;;;;;936.78;872.88;;;;;;;14.13;42.72;101919.75;686771;28;69441;-63
2022/04/30 00:53:34;;;;;;;940.35;876.25;;;;;;;14.13;42.62;101919.75;687703;28;67211;-63
2022/04/30 00:53:57;;;;;;;929.80;866.15;;;;;;;14.14;42.70;101926.88;689489;28;21519;-63
2022/04/30 00:54:20;;;;;;;937.75;873.78;;;;;;;14.14;42.58;101913.28;686969;28;69457;-63
2022/04/30 00:54:41;;;;;;;938.20;874.33;;;;;;;14.10;42.75;101910.06;687712;28;69392;-63
2022/04/30 00:55:03;;;;;;;940.70;876.78;;;;;;;14.13;42.59;101917.03;689210;28;22193;-63
2022/04/30 00:55:29;;;;;;;946.05;881.78;;;;;;;14.12;42.58;101912.59;684335;28;44145;-63
2022/04/30 00:55:50;;;;;;;946.50;882.20;;;;;;;14.12;43.05;101916.19;681532;28;138358;-63
2022/04/30 00:56:13;;;;;;;945.28;881.08;;;;;;;14.12;42.87;101916.19;684490;28;21332;-63
2022/04/30 00:56:37;;;;;;;932.55;868.72;;;;;;;14.11;42.94;101919.91;682107;28;69266;-63
2022/04/30 00:57:00;;;;;;;937.27;873.27;;;;;;;14.12;43.15;101918.03;682077;28;91345;-63
2022/04/30 00:57:23;;;;;;;935.63;871.65;;;;;;;14.09;43.14;101915.66;684589;28;93215;-63
2022/04/30 00:57:44;;;;;;;946.30;881.97;;;;;;;14.10;43.43;101917.38;687605;28;69686;-63
2022/04/30 00:58:06;;;;;;;933.08;869.28;;;;;;;14.09;43.43;101921.97;689387;28;23496;-63
2022/04/30 00:58:30;;;;;;;935.42;871.53;;;;;;;14.09;43.70;101923.81;688117;28;47165;-63
2022/04/30 00:58:54;;;;;;;932.63;868.85;;;;;;;14.06;43.78;101917.72;686979;28;91992;-63
2022/04/30 00:59:17;;;;;;;937.35;873.40;;;;;;;14.03;43.95;101915.34;686524;28;91328;-63
2022/04/30 00:59:39;;;;;;;939.13;875.05;;;;;;;13.99;43.78;101911.25;687745;28;67152;-63
2022/04/30 01:00:03;;;;;;;938.88;874.95;;;;;;;14.00;43.88;101914.84;684528;28;69335;-63
2022/04/30 01:00:29;;;;;;;938.80;874.83;;;;;;;13.98;44.40;101919.56;680492;28;137892;-63
2022/04/30 01:01:10;;;;;;;926.42;863.03;;;;;;;13.95;44.16;101923.50;678596;28;136010;-63
2022/04/30 01:02:09;;;;;;;933.90;870.05;;;;;;;13.86;44.07;101913.66;667717;29;157995;-63
2022/04/30 01:03:09;;;;;;;931.28;867.47;;;;;;;13.85;44.49;101914.66;672537;29;137515;-63
2022/04/30 01:03:53;;;;;;;933.30;869.58;;;;;;;13.82;44.45;101912.28;667467;29;137916;-63
2022/04/30 01:04:15;;;;;;;942.85;878.75;;;;;;;13.80;44.54;101919.75;674623;29;21527;-63
2022/04/30 01:04:36;;;;;;;949.35;885.05;;;;;;;13.78;44.99;101919.94;673747;29;45321;-63
2022/04/30 01:05:10;;;;;;;938.42;874.42;;;;;;;13.78;44.66;101917.22;684180;28;61327;-63
2022/04/30 01:05:31;;;;;;;937.00;872.90;;;;;;;13.76;44.58;101913.81;682871;28;93282;-63
2022/04/30 01:05:52;;;;;;;938.67;874.55;;;;;;;13.77;44.79;101920.94;684206;28;15593;-63
2022/04/30 01:06:13;;;;;;;945.78;881.53;;;;;;;13.76;44.78;101918.38;685386;28;21538;-63
2022/04/30 01:06:48;;;;;;;944.78;880.40;;;;;;;13.75;45.10;101916.72;683961;28;21604;-63
2022/04/30 01:07:09;;;;;;;941.13;876.90;;;;;;;13.74;44.97;101913.13;680551;28;138472;-63
2022/04/30 01:07:30;;;;;;;943.90;879.60;;;;;;;13.72;44.95;101917.03;685453;28;24163;-63
2022/04/30 01:07:52;;;;;;;942.80;878.58;;;;;;;13.74;44.96;101915.00;688658;28;22369;-63
2022/04/30 01:08:15;;;;;;;940.35;876.20;;;;;;;13.74;45.14;101920.44;687373;28;46358;-63
2022/04/30 01:08:37;;;;;;;952.58;887.97;;;;;;;13.73;45.15;101916.88;688217;28;1072;-62
2022/04/30 01:08:58;;;;;;;943.17;879.08;;;;;;;13.73;44.94;101908.72;683992;28;46013;-63
2022/04/30 01:09:21;;;;;;;933.78;869.88;;;;;;;13.72;45.13;101912.47;685043;28;22414;-63
2022/04/30 01:09:44;;;;;;;942.53;878.22;;;;;;;13.72;45.23;101915.16;682029;28;91934;-63
2022/04/30 01:10:07;;;;;;;941.30;877.13;;;;;;;13.70;45.43;101918.06;683550;28;69430;-63
2022/04/30 01:10:29;;;;;;;935.72;871.80;;;;;;;13.70;45.30;101915.34;683766;28;67226;-63
2022/04/30 01:10:50;;;;;;;935.83;871.88;;;;;;;13.72;45.10;101911.63;687583;28;23496;-63
2022/04/30 01:11:12;;;;;;;942.42;878.25;;;;;;;13.72;45.41;101915.16;689420;28;23504;-64
2022/04/30 01:11:33;;;;;;;942.28;877.97;;;;;;;13.72;44.95;101911.63;687382;28;45261;-63
2022/04/30 01:11:56;;;;;;;941.75;877.45;;;;;;;13.72;45.17;101908.91;688107;28;46944;-63
2022/04/30 01:12:17;;;;;;;947.20;882.70;;;;;;;13.70;45.44;101918.06;683874;28;44874;-59
2022/04/30 01:12:39;;;;;;;945.28;880.83;;;;;;;13.69;45.01;101908.19;685283;28;22390;-62
2022/04/30 01:13:02;;;;;;;947.55;883.05;;;;;;;13.69;45.29;101908.19;683120;28;69457;-63
2022/04/30 01:13:24;;;;;;;948.30;883.70;;;;;;;13.67;45.33;101910.25;683029;28;69427;-63
2022/04/30 01:13:45;;;;;;;945.22;880.97;;;;;;;13.66;45.46;101913.13;685312;28;21271;-63
2022/04/30 01:14:07;;;;;;;944.70;880.40;;;;;;;13.64;45.14;101904.31;686349;28;23475;-62
2022/04/30 01:14:31;;;;;;;937.65;873.65;;;;;;;13.64;45.19;101910.59;688096;28;47209;-62
2022/04/30 01:14:52;;;;;;;938.55;874.63;;;;;;;13.63;45.63;101911.59;685762;28;115263;-62
2022/04/30 01:15:14;;;;;;;946.35;882.13;;;;;;;13.65;45.61;101912.28;688545;28;21491;-62
2022/04/30 01:15:35;;;;;;;934.22;870.40;;;;;;;13.63;45.31;101916.19;686783;28;44508;-63
2022/04/30 01:15:58;;;;;;;936.42;872.55;;;;;;;13.60;45.44;101909.22;688973;28;24402;-62
2022/04/30 01:16:19;;;;;;;938.30;874.38;;;;;;;13.61;45.24;101916.34;685170;28;68782;-62
2022/04/30 01:16:41;;;;;;;936.63;872.78;;;;;;;13.59;45.32;101903.94;687118;28;22458;-62
2022/04/30 01:17:05;;;;;;;938.90;875.00;;;;;;;13.60;45.54;101905.66;686719;28;46313;-62
2022/04/30 01:17:27;;;;;;;926.03;862.40;;;;;;;13.57;45.40;101912.25;685599;28;92228;-62
2022/04/30 01:17:48;;;;;;;927.13;863.45;;;;;;;13.57;45.78;101904.13;686693;28;46282;-62
2022/04/30 01:18:10;;;;;;;927.17;863.53;;;;;;;13.56;45.47;101907.00;687414;28;23509;-62
2022/04/30 01:18:33;;;;;;;938.67;874.67;;;;;;;13.55;45.56;101908.03;687208;28;45081;-63
2022/04/30 01:18:55;;;;;;;934.67;870.80;;;;;;;13.55;45.03;101908.03;687437;28;69453;-63
2022/04/30 01:19:19;;;;;;;935.97;872.08;;;;;;;13.52;45.23;101901.91;688357;28;1528;-63
2022/04/30 01:19:43;;;;;;;946.33;881.78;;;;;;;13.54;45.17;101906.31;683960;28;113989;-63
2022/04/30 01:20:05;;;;;;;946.88;882.55;;;;;;;13.53;45.18;101908.19;686549;28;68144;-63
2022/04/30 01:20:27;;;;;;;948.13;883.75;;;;;;;13.53;44.85;101910.91;686255;28;70228;-63
2022/04/30 01:20:51;;;;;;;941.40;877.20;;;;;;;13.53;45.39;101910.91;687016;28;46158;-63
2022/04/30 01:21:13;;;;;;;939.38;875.38;;;;;;;13.52;45.12;101907.34;685709;28;91733;-63
2022/04/30 01:21:35;;;;;;;933.67;869.70;;;;;;;13.49;44.81;101913.13;686879;28;46067;-63
2022/04/30 01:21:57;;;;;;;940.03;875.80;;;;;;;13.47;44.83;101909.72;687643;28;23636;-63
2022/04/30 01:22:23;;;;;;;937.63;873.53;;;;;;;13.46;44.78;101907.16;686420;28;69424;-63
2022/04/30 01:22:57;;;;;;;947.92;883.58;;;;;;;13.46;44.83;101908.03;683716;28;137944;-63
2022/04/30 01:23:19;;;;;;;937.38;873.30;;;;;;;13.44;44.71;101904.63;685037;28;136002;-63
2022/04/30 01:23:44;;;;;;;934.33;870.38;;;;;;;13.45;44.90;101909.03;682985;28;41424;-63
2022/04/30 01:24:07;;;;;;;962.03;897.15;;;;;;;13.40;45.11;101895.13;679182;28;115437;-63
2022/04/30 01:24:30;;;;;;;948.47;884.08;;;;;;;13.45;45.28;101911.75;680851;28;69779;-63
2022/04/30 01:24:54;;;;;;;950.80;886.40;;;;;;;13.47;45.06;101908.88;680679;28;69481;-63
2022/04/30 01:25:17;;;;;;;956.20;891.63;;;;;;;13.44;45.59;101904.63;680035;28;93358;-63
2022/04/30 01:25:38;;;;;;;958.03;893.35;;;;;;;13.48;45.60;101905.16;684509;28;70258;-63
2022/04/30 01:26:00;;;;;;;963.67;898.83;;;;;;;13.48;45.31;101905.16;688533;28;22400;-63
2022/04/30 01:26:23;;;;;;;959.95;895.13;;;;;;;13.47;45.75;101901.56;687333;28;46319;-63
2022/04/30 01:26:45;;;;;;;979.55;914.00;;;;;;;13.48;45.60;101905.16;687628;28;67480;-63
2022/04/30 01:27:06;;;;;;;984.22;918.50;;;;;;;13.48;45.74;101907.88;687685;28;48324;-64
2022/04/30 01:27:28;;;;;;;991.70;925.70;;;;;;;13.48;46.04;101906.00;688357;28;45218;-64
2022/04/30 01:27:52;;;;;;;998.83;932.63;;;;;;;13.49;45.65;101904.13;688105;28;6661;-63
2022/04/30 01:28:13;;;;;;;1004.92;938.55;;;;;;;13.49;45.66;101905.00;685456;28;89640;-63
2022/04/30 01:28:34;;;;;;;1010.78;944.08;;;;;;;13.49;46.18;101910.41;686918;28;24314;-63
2022/04/30 01:28:56;;;;;;;998.40;932.33;;;;;;;13.48;45.86;101906.00;686722;28;46362;-63
2022/04/30 01:29:19;;;;;;;992.15;926.35;;;;;;;13.50;46.15;101908.53;687537;28;22412;-63
2022/04/30 01:29:40;;;;;;;991.17;925.45;;;;;;;13.46;45.62;101905.31;686194;28;69602;-63
2022/04/30 01:30:02;;;;;;;1014.53;947.83;;;;;;;13.44;45.75;101903.78;685012;28;23435;-63
2022/04/30 01:30:23;;;;;;;1013.00;946.45;;;;;;;13.45;45.68;101909.03;682118;28;13387;-62
2022/04/30 01:30:45;;;;;;;1007.88;941.08;;;;;;;13.45;45.43;101903.63;682225;28;22430;-63
2022/04/30 01:37:22;;;;;;;993.60;927.63;;;;;;;13.45;45.92;101909.03;681918;28;44369;-63
2022/04/30 01:37:38;;;;;;;1013.17;946.47;;;;;;;13.32;46.49;101908.63;676503;29;137244;-64
2022/04/30 01:38:01;;;;;;;1045.43;977.47;;;;;;;13.29;46.41;101909.84;680206;29;44152;-64
2022/04/30 01:38:22;;;;;;;1039.65;971.88;;;;;;;13.31;46.08;101906.94;680047;29;46667;-64
2022/04/30 01:38:43;;;;;;;1025.38;958.22;;;;;;;13.31;46.31;101907.78;679781;29;44267;-64
2022/04/30 01:39:06;;;;;;;1036.50;969.00;;;;;;;13.29;46.32;101898.97;681807;28;1011;-63
2022/04/30 01:39:27;;;;;;;1041.30;973.42;;;;;;;13.29;46.32;101907.13;681390;29;1599;-64
2022/04/30 01:39:52;;;;;;;1058.63;989.95;;;;;;;13.29;46.13;101904.41;681976;29;884;-63
2022/04/30 01:40:14;;;;;;;1061.73;993.03;;;;;;;13.28;46.05;101905.41;678236;29;93991;-64
2022/04/30 01:40:35;;;;;;;1041.80;973.92;;;;;;;13.29;46.13;101904.41;678462;29;70326;-63
2022/04/30 01:40:56;;;;;;;1040.78;972.92;;;;;;;13.26;45.91;101904.75;680554;29;22484;-64
2022/04/30 01:41:17;;;;;;;1046.68;978.53;;;;;;;13.25;46.16;101903.03;680661;29;21537;-64
2022/04/30 01:41:43;;;;;;;1044.30;976.25;;;;;;;13.27;46.11;101905.56;677428;29;89095;-64
2022/04/30 01:42:11;;;;;;;1039.55;971.78;;;;;;;13.27;46.46;101903.69;677711;29;92149;-64
2022/04/30 01:42:35;;;;;;;1050.18;981.92;;;;;;;13.27;46.30;101906.41;676624;29;136296;-64
2022/04/30 01:42:59;;;;;;;1031.40;964.10;;;;;;;13.26;46.01;101902.03;678471;29;92321;-63
2022/04/30 01:43:21;;;;;;;1032.35;965.05;;;;;;;13.26;45.92;101902.03;678896;28;67157;-64
2022/04/30 01:43:43;;;;;;;1049.45;981.35;;;;;;;13.26;46.02;101903.88;678171;28;68313;-64
2022/04/30 01:44:04;;;;;;;1057.13;988.75;;;;;;;13.26;45.89;101901.16;687577;28;46421;-64
2022/04/30 01:44:25;;;;;;;1042.53;974.72;;;;;;;13.26;46.08;101896.59;688838;28;23438;-64
2022/04/30 01:44:47;;;;;;;1047.30;979.35;;;;;;;13.27;46.12;101898.28;688813;28;21528;-64
2022/04/30 01:45:10;;;;;;;1032.40;964.90;;;;;;;13.28;45.99;101902.69;687318;28;44531;-63
2022/04/30 01:45:31;;;;;;;1035.35;967.70;;;;;;;13.28;46.15;101896.44;687423;28;68537;-64
2022/04/30 01:45:53;;;;;;;1047.93;979.83;;;;;;;13.28;46.10;101901.88;688213;28;1797;-64
2022/04/30 01:46:15;;;;;;;1076.40;999.90;;;;;;;13.28;45.88;101902.69;687413;28;23405;-64
2022/04/30 01:46:36;;;;;;;1045.57;977.50;;;;;;;13.27;45.97;101895.56;686768;28;23497;-64
2022/04/30 01:46:58;;;;;;;1055.07;986.78;;;;;;;13.27;46.17;101901.00;687413;28;22377;-63
2022/04/30 01:47:19;;;;;;;1080.90;999.90;;;;;;;13.28;45.91;101893.72;686850;28;47388;-64
2022/04/30 01:47:43;;;;;;;1059.07;990.53;;;;;;;13.29;45.81;101900.81;687669;28;23404;-63